Time;durP1;ratioP1;P1;durP2;ratioP2;P2;SDS_P1;SDS_P2;PMS_P1;PMS_P2;Temp;Humidity;BMP_temperature;BMP_pressure;BME280_temperature;BME280_humidity;BME280_pressure;Samples;Min_cycle;Max_cycle;Signal;HPM_P1;HPM_P2
2021/12/30 00:00:12;;;;;;;47.42;8.02;;;7.50;99.90;;;;;;4943314;28;20541;-48
2021/12/30 00:02:37;;;;;;;58.97;8.70;;;7.60;99.90;;;;;;4944207;28;20047;-48
2021/12/30 00:05:04;;;;;;;62.80;9.60;;;7.50;99.90;;;;;;4944384;28;20094;-48
2021/12/30 00:07:30;;;;;;;58.40;9.80;;;7.50;99.90;;;;;;4943712;28;20434;-47
2021/12/30 00:10:06;;;;;;;50.72;8.70;;;7.40;99.90;;;;;;4944280;28;20518;-48
2021/12/30 00:12:32;;;;;;;59.35;8.73;;;7.30;99.90;;;;;;4943521;28;20502;-48
2021/12/30 00:14:58;;;;;;;74.22;11.98;;;7.30;99.90;;;;;;4926444;29;20051;-48
2021/12/30 00:17:23;;;;;;;58.47;10.40;;;7.30;99.90;;;;;;4935242;28;20050;-48
2021/12/30 00:19:49;;;;;;;53.83;9.95;;;7.30;99.90;;;;;;4947910;28;20082;-48
2021/12/30 00:22:23;;;;;;;52.83;8.68;;;7.20;99.90;;;;;;4943975;28;20094;-52
2021/12/30 00:24:48;;;;;;;57.95;9.38;;;7.20;99.90;;;;;;4938981;29;20144;-51
2021/12/30 00:27:14;;;;;;;55.75;9.23;;;7.30;99.90;;;;;;4943655;29;20047;-48
2021/12/30 00:29:40;;;;;;;69.97;10.18;;;7.20;99.90;;;;;;4922801;29;20142;-51
2021/12/30 00:32:06;;;;;;;58.22;8.75;;;7.30;99.90;;;;;;4941554;29;20079;-47
2021/12/30 00:34:32;;;;;;;55.13;9.25;;;7.20;99.90;;;;;;4932777;28;20097;-48
2021/12/30 00:36:57;;;;;;;60.05;10.35;;;7.20;99.90;;;;;;4938332;29;20118;-50
2021/12/30 00:39:23;;;;;;;60.38;8.50;;;7.20;99.90;;;;;;4937594;29;20078;-48
2021/12/30 00:41:49;;;;;;;56.35;9.05;;;7.20;99.90;;;;;;4943517;29;20458;-48
2021/12/30 00:44:14;;;;;;;50.67;8.85;;;7.30;99.90;;;;;;4909800;29;20578;-50
2021/12/30 00:46:40;;;;;;;68.22;10.85;;;7.20;99.90;;;;;;4942832;29;20082;-49
2021/12/30 00:49:06;;;;;;;54.25;8.52;;;7.10;99.90;;;;;;4925792;29;20487;-49
2021/12/30 00:51:32;;;;;;;52.13;8.55;;;7.00;99.90;;;;;;4943173;28;20469;-47
2021/12/30 00:53:57;;;;;;;43.90;9.10;;;7.10;99.90;;;;;;4942939;29;20059;-50
2021/12/30 00:56:23;;;;;;;49.20;8.65;;;7.00;99.90;;;;;;4943186;29;20103;-48
2021/12/30 00:58:49;;;;;;;44.55;8.35;;;7.00;99.90;;;;;;4943442;28;20146;-48
2021/12/30 01:01:15;;;;;;;57.88;9.02;;;7.00;99.90;;;;;;4946535;29;20039;-50
2021/12/30 01:03:41;;;;;;;49.45;9.50;;;7.00;99.90;;;;;;4926480;29;20055;-48
2021/12/30 01:06:06;;;;;;;58.08;10.23;;;7.00;99.90;;;;;;4946803;29;20055;-48
2021/12/30 01:08:32;;;;;;;41.65;8.60;;;7.00;99.90;;;;;;4947379;29;20087;-49
2021/12/30 01:11:01;;;;;;;50.00;9.95;;;7.00;99.90;;;;;;4946837;29;20214;-48
2021/12/30 01:13:30;;;;;;;50.75;9.50;;;7.00;99.90;;;;;;4946692;29;20084;-48
2021/12/30 01:16:03;;;;;;;46.08;9.45;;;6.90;99.90;;;;;;4943681;28;20438;-48
2021/12/30 01:18:56;;;;;;;50.15;8.40;;;6.90;99.90;;;;;;4935236;29;20506;-49
2021/12/30 01:21:24;;;;;;;67.72;9.95;;;6.90;99.90;;;;;;4947719;28;20051;-47
2021/12/30 01:23:51;;;;;;;57.88;10.10;;;7.00;99.90;;;;;;4949535;28;20134;-48
2021/12/30 01:26:17;;;;;;;55.92;10.13;;;6.90;99.90;;;;;;4953307;28;20059;-48
2021/12/30 01:28:43;;;;;;;50.03;9.15;;;6.90;99.90;;;;;;4946483;29;20130;-48
2021/12/30 01:31:09;;;;;;;47.15;8.30;;;7.00;99.90;;;;;;4947766;29;20050;-53
2021/12/30 01:33:38;;;;;;;56.45;9.82;;;6.90;99.90;;;;;;4939829;28;20047;-48
2021/12/30 01:36:04;;;;;;;46.88;8.40;;;7.00;99.90;;;;;;4952956;28;20577;-56
2021/12/30 01:38:30;;;;;;;50.60;8.90;;;6.90;99.90;;;;;;4947077;29;20047;-49
2021/12/30 01:41:00;;;;;;;62.20;10.45;;;7.00;99.90;;;;;;4936197;29;20051;-48
2021/12/30 01:43:27;;;;;;;58.70;10.32;;;7.10;99.90;;;;;;4930031;29;20055;-50
2021/12/30 01:45:53;;;;;;;55.95;10.43;;;7.10;99.90;;;;;;4945812;29;20043;-47
2021/12/30 01:48:21;;;;;;;61.45;9.65;;;7.10;99.90;;;;;;4945917;29;20050;-49
2021/12/30 01:50:48;;;;;;;56.85;8.48;;;7.00;99.90;;;;;;4924001;29;20695;-49
2021/12/30 01:53:14;;;;;;;55.75;10.20;;;7.10;99.90;;;;;;4940997;29;20177;-48
2021/12/30 01:55:42;;;;;;;53.90;9.90;;;7.00;99.90;;;;;;4940092;29;20534;-47
2021/12/30 01:58:08;;;;;;;52.03;9.55;;;7.10;99.90;;;;;;4928423;29;20670;-48
2021/12/30 02:00:36;;;;;;;63.08;10.07;;;7.00;99.90;;;;;;4925775;29;20142;-47
2021/12/30 02:03:03;;;;;;;57.22;8.05;;;7.00;99.90;;;;;;4931406;29;20060;-48
2021/12/30 02:05:29;;;;;;;55.88;9.57;;;7.00;99.90;;;;;;4941148;29;20113;-48
2021/12/30 02:07:55;;;;;;;63.00;10.00;;;7.00;99.90;;;;;;4944825;29;20073;-48
2021/12/30 02:10:21;;;;;;;61.67;9.82;;;7.00;99.90;;;;;;4943705;28;20078;-49
2021/12/30 02:12:47;;;;;;;55.70;10.27;;;7.00;99.90;;;;;;4944715;29;20055;-50
2021/12/30 02:15:16;;;;;;;71.30;10.68;;;7.00;99.90;;;;;;4945887;29;20518;-49
2021/12/30 02:17:49;;;;;;;55.85;10.13;;;7.00;99.90;;;;;;4943458;28;20410;-47
2021/12/30 02:20:46;;;;;;;56.97;12.18;;;7.00;99.90;;;;;;4927606;28;20458;-47
2021/12/30 02:23:13;;;;;;;59.63;9.35;;;7.00;99.90;;;;;;4929072;28;20525;-47
2021/12/30 02:25:40;;;;;;;49.42;9.73;;;7.00;99.90;;;;;;4944154;29;20057;-48
2021/12/30 02:28:08;;;;;;;49.83;10.23;;;7.10;99.90;;;;;;4945665;29;20051;-48
2021/12/30 02:30:35;;;;;;;64.90;10.93;;;7.00;99.90;;;;;;4944252;29;20059;-48
2021/12/30 02:33:01;;;;;;;75.57;11.48;;;7.00;99.90;;;;;;4934614;29;20050;-48
2021/12/30 02:35:27;;;;;;;63.00;12.55;;;7.00;99.90;;;;;;4954136;28;20478;-48
2021/12/30 02:37:53;;;;;;;69.65;14.00;;;7.00;99.90;;;;;;4944798;29;20443;-48
2021/12/30 02:40:32;;;;;;;69.80;12.30;;;7.00;99.90;;;;;;4927748;29;20062;-48
2021/12/30 02:42:59;;;;;;;72.68;14.15;;;7.20;99.90;;;;;;4944945;29;20062;-48
2021/12/30 02:45:25;;;;;;;82.03;16.38;;;7.20;99.90;;;;;;4932640;29;20157;-49
2021/12/30 02:47:51;;;;;;;80.40;17.33;;;7.10;99.90;;;;;;4924165;28;20098;-51
2021/12/30 02:50:17;;;;;;;100.97;19.17;;;7.20;99.90;;;;;;4943903;28;20101;-50
2021/12/30 02:52:43;;;;;;;82.25;18.25;;;7.30;99.90;;;;;;4943495;28;20043;-50
2021/12/30 02:55:10;;;;;;;76.72;18.65;;;7.30;99.90;;;;;;4924089;29;20087;-48
2021/12/30 02:57:35;;;;;;;88.47;19.42;;;7.50;99.90;;;;;;4940861;28;20047;-51
2021/12/30 03:00:02;;;;;;;92.32;20.48;;;7.40;99.90;;;;;;4942273;28;20050;-47
2021/12/30 03:02:28;;;;;;;74.82;17.70;;;7.50;99.90;;;;;;4933665;28;20447;-48
2021/12/30 03:04:54;;;;;;;79.35;17.05;;;7.60;99.90;;;;;;4937417;28;20114;-47
2021/12/30 03:07:20;;;;;;;84.10;17.80;;;7.50;99.90;;;;;;4907143;28;20574;-50
2021/12/30 03:09:46;;;;;;;87.20;17.35;;;7.60;99.90;;;;;;4926645;29;20051;-48
2021/12/30 03:12:13;;;;;;;79.90;17.80;;;7.70;99.90;;;;;;4944642;29;20419;-48
2021/12/30 03:14:40;;;;;;;86.82;17.13;;;7.60;99.90;;;;;;4944743;29;20102;-49
2021/12/30 03:17:06;;;;;;;82.10;17.40;;;7.60;99.90;;;;;;4945283;29;20051;-51
2021/12/30 03:19:33;;;;;;;78.85;16.30;;;7.80;99.90;;;;;;4944724;29;20039;-50
2021/12/30 03:21:59;;;;;;;73.53;16.58;;;7.70;99.90;;;;;;4946233;28;20047;-48
2021/12/30 03:24:24;;;;;;;79.25;15.93;;;7.80;99.90;;;;;;4950845;28;20082;-49
2021/12/30 03:26:54;;;;;;;76.40;15.70;;;7.80;99.90;;;;;;4943658;29;20051;-48
2021/12/30 03:29:19;;;;;;;80.75;15.65;;;7.90;99.90;;;;;;4925728;29;20109;-48
2021/12/30 03:31:46;;;;;;;81.38;16.55;;;8.00;99.90;;;;;;4925913;28;20059;-48
2021/12/30 03:34:11;;;;;;;79.63;15.77;;;8.10;99.90;;;;;;4932262;28;20086;-48
2021/12/30 03:36:37;;;;;;;80.70;16.20;;;8.20;99.90;;;;;;4943664;28;20138;-47
2021/12/30 03:39:04;;;;;;;82.35;16.50;;;8.20;99.90;;;;;;4918886;29;20569;-48
2021/12/30 03:41:31;;;;;;;88.72;16.50;;;8.30;99.90;;;;;;4943691;29;20047;-48
2021/12/30 03:44:00;;;;;;;73.55;14.73;;;8.30;99.90;;;;;;4944390;29;20046;-51
2021/12/30 03:46:28;;;;;;;83.65;15.48;;;8.30;99.90;;;;;;4943910;29;20130;-50
2021/12/30 03:48:54;;;;;;;83.80;15.57;;;8.50;99.90;;;;;;4917439;29;20066;-50
2021/12/30 03:51:23;;;;;;;84.50;15.73;;;8.50;99.90;;;;;;4942103;28;20055;-48
2021/12/30 03:53:52;;;;;;;81.47;16.38;;;8.40;99.90;;;;;;4944477;29;20051;-48
2021/12/30 03:56:21;;;;;;;71.03;14.80;;;8.60;99.90;;;;;;4936105;29;20140;-49
2021/12/30 03:58:47;;;;;;;82.00;16.50;;;8.60;99.90;;;;;;4946098;29;20536;-48
2021/12/30 04:01:15;;;;;;;85.05;14.95;;;8.50;99.90;;;;;;4944513;29;20159;-51
2021/12/30 04:03:42;;;;;;;84.22;15.35;;;8.60;99.90;;;;;;4943881;29;20055;-50
2021/12/30 04:06:08;;;;;;;92.70;16.60;;;8.80;99.90;;;;;;4942946;29;20093;-48
2021/12/30 04:08:35;;;;;;;82.38;16.23;;;8.60;99.90;;;;;;4925752;29;20161;-50
2021/12/30 04:11:00;;;;;;;89.20;16.08;;;8.80;99.90;;;;;;4925660;29;20504;-48
2021/12/30 04:13:27;;;;;;;86.63;18.17;;;8.80;99.90;;;;;;4943824;29;20047;-48
2021/12/30 04:15:52;;;;;;;89.43;16.90;;;8.90;99.90;;;;;;4922899;29;20058;-48
2021/12/30 04:18:19;;;;;;;95.05;17.70;;;8.90;99.90;;;;;;4911346;29;20052;-50
2021/12/30 04:20:50;;;;;;;93.93;20.40;;;8.90;99.90;;;;;;4906555;29;20138;-48
2021/12/30 04:23:16;;;;;;;95.03;21.42;;;9.10;99.90;;;;;;4922222;29;20538;-48
2021/12/30 04:25:41;;;;;;;88.03;20.50;;;9.10;99.90;;;;;;4924111;29;20055;-48
2021/12/30 04:28:08;;;;;;;103.15;21.65;;;9.20;99.90;;;;;;4906636;29;20087;-48
2021/12/30 04:30:34;;;;;;;110.22;22.88;;;9.10;99.90;;;;;;4924415;29;20584;-47
2021/12/30 04:33:00;;;;;;;113.50;22.27;;;9.20;99.90;;;;;;4924499;29;20052;-48
2021/12/30 04:35:25;;;;;;;120.93;23.35;;;9.30;99.90;;;;;;4931469;29;20462;-49
2021/12/30 04:37:51;;;;;;;104.50;24.60;;;9.20;99.90;;;;;;4928613;29;20066;-48
2021/12/30 04:40:17;;;;;;;101.28;24.45;;;9.20;99.90;;;;;;4908772;29;20094;-49
2021/12/30 04:42:43;;;;;;;96.47;24.52;;;9.30;99.90;;;;;;4928270;29;20160;-48
2021/12/30 04:45:11;;;;;;;111.03;25.98;;;9.40;99.90;;;;;;4927154;29;20070;-48
2021/12/30 04:47:40;;;;;;;107.43;25.60;;;9.30;99.90;;;;;;4894283;29;20466;-49
2021/12/30 04:50:09;;;;;;;120.50;27.63;;;9.30;99.90;;;;;;4927849;29;20051;-48
2021/12/30 04:52:35;;;;;;;114.85;25.23;;;9.40;99.90;;;;;;4928438;29;20426;-51
2021/12/30 04:55:01;;;;;;;108.10;25.42;;;9.50;99.90;;;;;;4910582;29;20063;-50
2021/12/30 04:57:27;;;;;;;142.15;29.83;;;9.50;99.90;;;;;;4927064;29;20601;-50
2021/12/30 04:59:54;;;;;;;119.65;28.27;;;9.50;99.90;;;;;;4927576;29;20102;-48
2021/12/30 05:02:20;;;;;;;122.50;28.20;;;9.50;99.90;;;;;;4928327;29;20051;-50
2021/12/30 05:04:46;;;;;;;97.60;25.73;;;9.60;99.90;;;;;;4928062;29;20377;-48
2021/12/30 05:07:11;;;;;;;113.80;26.50;;;9.50;99.90;;;;;;4927411;29;20119;-51
2021/12/30 05:09:37;;;;;;;95.90;28.10;;;9.60;99.90;;;;;;4910610;29;20056;-49
2021/12/30 05:12:03;;;;;;;111.63;28.17;;;9.60;99.90;;;;;;4925014;29;20048;-50
2021/12/30 05:14:29;;;;;;;106.00;28.52;;;9.70;99.90;;;;;;4928834;29;20066;-50
2021/12/30 05:17:02;;;;;;;120.38;28.27;;;9.60;99.90;;;;;;4919621;29;20051;-48
2021/12/30 05:19:28;;;;;;;126.60;31.27;;;9.60;99.90;;;;;;4900798;29;20133;-50
2021/12/30 05:21:53;;;;;;;133.85;31.27;;;9.60;99.90;;;;;;4927197;29;20164;-48
2021/12/30 05:24:19;;;;;;;131.52;31.77;;;9.70;99.90;;;;;;4924392;29;20064;-48
2021/12/30 05:26:45;;;;;;;128.60;29.80;;;9.70;99.90;;;;;;4926140;29;20052;-48
2021/12/30 05:29:11;;;;;;;122.30;29.88;;;9.70;99.90;;;;;;4926576;29;20051;-47
2021/12/30 05:31:40;;;;;;;130.73;30.17;;;9.80;99.90;;;;;;4926878;29;20514;-47
2021/12/30 05:34:06;;;;;;;125.53;29.73;;;9.90;99.90;;;;;;4932436;29;20134;-48
2021/12/30 05:36:31;;;;;;;115.32;28.88;;;9.80;99.90;;;;;;4927097;29;20046;-48
2021/12/30 05:38:57;;;;;;;112.90;28.63;;;9.90;99.90;;;;;;4927149;29;20050;-52
2021/12/30 05:41:25;;;;;;;125.90;28.40;;;9.80;99.90;;;;;;4931151;29;20469;-48
2021/12/30 05:43:52;;;;;;;119.97;30.15;;;10.00;99.90;;;;;;4909483;29;20475;-48
2021/12/30 05:46:17;;;;;;;129.80;30.85;;;10.00;99.90;;;;;;4924627;29;20048;-48
2021/12/30 05:48:43;;;;;;;155.77;32.25;;;10.00;99.90;;;;;;4926308;29;20071;-48
2021/12/30 05:51:09;;;;;;;164.65;32.30;;;9.90;99.90;;;;;;4909181;29;20090;-48
2021/12/30 05:53:35;;;;;;;174.73;34.58;;;10.00;99.90;;;;;;4927356;29;20514;-49
2021/12/30 05:56:01;;;;;;;143.80;30.63;;;10.00;99.90;;;;;;4926574;29;20051;-48
2021/12/30 05:58:26;;;;;;;168.85;31.58;;;10.10;99.90;;;;;;4908760;29;20509;-50
2021/12/30 06:00:53;;;;;;;160.88;30.77;;;10.10;99.90;;;;;;4927236;29;20052;-49
2021/12/30 06:03:20;;;;;;;159.13;31.67;;;10.00;99.90;;;;;;4909455;29;20581;-51
2021/12/30 06:05:50;;;;;;;166.35;30.50;;;10.10;99.90;;;;;;4925335;29;20129;-47
2021/12/30 06:08:16;;;;;;;146.98;28.50;;;10.00;99.90;;;;;;4908262;29;20052;-48
2021/12/30 06:10:43;;;;;;;171.07;30.70;;;10.10;99.90;;;;;;4926079;29;20051;-48
2021/12/30 06:13:10;;;;;;;181.73;31.00;;;10.10;99.90;;;;;;4927115;29;20392;-47
2021/12/30 06:15:36;;;;;;;121.97;26.00;;;10.10;99.90;;;;;;4926820;29;20055;-52
2021/12/30 06:18:02;;;;;;;123.05;26.30;;;10.10;99.90;;;;;;4924016;29;20048;-50
2021/12/30 06:20:29;;;;;;;116.15;25.17;;;10.00;99.90;;;;;;4926476;29;20051;-48
2021/12/30 06:22:55;;;;;;;107.88;25.77;;;10.10;99.90;;;;;;4924108;29;20094;-48
2021/12/30 06:25:21;;;;;;;94.93;24.38;;;10.10;99.90;;;;;;4928299;29;20155;-51
2021/12/30 06:27:47;;;;;;;80.13;23.25;;;10.10;99.90;;;;;;4946283;28;20199;-51
2021/12/30 06:30:13;;;;;;;89.25;23.63;;;10.00;99.90;;;;;;4945671;29;20881;-48
2021/12/30 06:32:39;;;;;;;79.13;21.75;;;10.10;99.90;;;;;;4927761;29;20062;-47
2021/12/30 06:35:08;;;;;;;66.88;21.50;;;10.10;99.90;;;;;;4950088;28;20035;-47
2021/12/30 06:37:38;;;;;;;75.22;21.50;;;10.00;99.90;;;;;;4927971;29;20062;-49
2021/12/30 06:40:08;;;;;;;106.88;25.60;;;10.10;99.90;;;;;;4945676;29;20043;-47
2021/12/30 06:42:34;;;;;;;60.03;21.20;;;10.10;99.90;;;;;;4926966;29;20062;-48
2021/12/30 06:45:00;;;;;;;64.93;23.58;;;10.20;99.90;;;;;;4944802;29;20043;-48
2021/12/30 06:47:26;;;;;;;56.97;22.40;;;10.10;99.90;;;;;;4924879;29;20059;-50
2021/12/30 06:50:01;;;;;;;66.38;23.35;;;10.20;99.90;;;;;;4944770;28;20126;-48
2021/12/30 06:52:28;;;;;;;59.70;22.08;;;10.20;99.90;;;;;;4945753;29;20442;-48
2021/12/30 06:54:53;;;;;;;54.17;21.77;;;10.30;99.90;;;;;;4945555;29;20612;-48
2021/12/30 06:57:22;;;;;;;63.65;22.10;;;10.20;99.90;;;;;;4944201;28;20054;-48
2021/12/30 06:59:48;;;;;;;44.72;18.15;;;10.40;99.90;;;;;;4944369;29;20057;-47
2021/12/30 07:02:14;;;;;;;45.72;17.05;;;10.40;99.90;;;;;;4925842;28;20086;-48
2021/12/30 07:04:40;;;;;;;51.47;17.73;;;10.40;99.90;;;;;;4944025;28;20272;-48
2021/12/30 07:07:08;;;;;;;38.03;15.32;;;10.40;99.90;;;;;;4944615;28;20043;-48
2021/12/30 07:09:34;;;;;;;33.70;14.13;;;10.40;99.90;;;;;;4944880;28;20470;-47
2021/12/30 07:12:06;;;;;;;28.52;13.80;;;10.50;99.90;;;;;;4944612;28;20039;-48
2021/12/30 07:14:31;;;;;;;28.27;14.50;;;10.30;99.90;;;;;;4944903;28;20121;-47
2021/12/30 07:16:57;;;;;;;28.08;14.40;;;10.40;99.90;;;;;;4935908;28;20047;-48
2021/12/30 07:19:23;;;;;;;30.88;14.65;;;10.50;99.90;;;;;;4943825;28;20126;-50
2021/12/30 07:21:50;;;;;;;30.40;14.85;;;10.40;99.90;;;;;;4944244;28;20063;-48
2021/12/30 07:24:17;;;;;;;35.72;16.05;;;10.50;99.90;;;;;;4951777;28;20056;-50
2021/12/30 07:26:43;;;;;;;32.58;14.70;;;10.40;99.90;;;;;;4932659;29;20051;-50
2021/12/30 07:29:08;;;;;;;32.55;15.82;;;10.40;99.90;;;;;;4944567;29;20051;-49
2021/12/30 07:31:34;;;;;;;28.23;14.52;;;10.40;99.90;;;;;;4944750;29;20066;-49
2021/12/30 07:34:00;;;;;;;29.73;14.23;;;10.50;99.90;;;;;;4949779;28;20051;-51
2021/12/30 07:36:28;;;;;;;28.65;13.80;;;10.50;99.90;;;;;;4950946;28;20051;-48
2021/12/30 07:38:53;;;;;;;29.20;13.50;;;10.50;99.90;;;;;;4945471;29;20038;-51
2021/12/30 07:41:19;;;;;;;28.80;13.20;;;10.40;99.90;;;;;;4943621;29;20872;-47
2021/12/30 07:43:45;;;;;;;27.80;12.57;;;10.40;99.90;;;;;;4943434;29;20048;-51
2021/12/30 07:46:11;;;;;;;33.17;16.27;;;10.50;99.90;;;;;;4933293;29;20126;-48
2021/12/30 07:48:38;;;;;;;35.25;18.42;;;10.40;99.90;;;;;;4944455;29;20051;-48
2021/12/30 07:51:04;;;;;;;35.25;17.02;;;10.40;99.90;;;;;;4943552;28;20561;-48
2021/12/30 07:53:31;;;;;;;42.38;18.35;;;10.60;99.90;;;;;;4944489;29;20082;-48
2021/12/30 07:55:56;;;;;;;40.92;19.67;;;10.40;99.90;;;;;;4942193;28;20105;-49
2021/12/30 07:58:28;;;;;;;43.10;19.83;;;10.40;99.90;;;;;;4942266;29;20454;-48
2021/12/30 08:00:54;;;;;;;43.10;19.65;;;10.40;99.90;;;;;;4943145;29;20094;-48
2021/12/30 08:03:20;;;;;;;39.67;18.60;;;10.40;99.90;;;;;;4918037;29;20051;-48
2021/12/30 08:05:48;;;;;;;45.45;19.27;;;10.50;99.90;;;;;;4940445;29;20043;-48
2021/12/30 08:08:14;;;;;;;40.22;18.30;;;10.40;99.90;;;;;;4941285;28;20047;-48
2021/12/30 08:10:39;;;;;;;45.75;19.05;;;10.50;99.90;;;;;;4943350;29;20418;-49
2021/12/30 08:13:05;;;;;;;47.83;18.27;;;10.60;99.90;;;;;;4942964;29;20387;-48
2021/12/30 08:15:31;;;;;;;42.47;18.20;;;10.50;99.90;;;;;;4942688;29;20043;-49
2021/12/30 08:17:58;;;;;;;49.20;19.10;;;10.50;99.90;;;;;;4942766;28;20506;-48
2021/12/30 08:20:24;;;;;;;40.92;17.70;;;10.60;99.90;;;;;;4938702;28;20062;-47
2021/12/30 08:22:51;;;;;;;42.45;17.85;;;10.50;99.90;;;;;;4925288;29;20047;-48
2021/12/30 08:25:18;;;;;;;46.50;15.60;;;10.40;99.90;;;;;;4942266;29;20134;-48
2021/12/30 08:27:45;;;;;;;42.05;16.50;;;10.50;99.90;;;;;;4942015;29;20050;-49
2021/12/30 08:30:13;;;;;;;37.70;14.75;;;10.40;99.90;;;;;;4942649;29;20051;-48
2021/12/30 08:32:40;;;;;;;35.92;12.73;;;10.50;99.90;;;;;;4943368;29;20047;-50
2021/12/30 08:35:08;;;;;;;45.67;13.13;;;10.40;99.90;;;;;;4943302;28;20043;-51
2021/12/30 08:37:34;;;;;;;35.85;10.55;;;10.40;99.90;;;;;;4943477;29;20150;-48
2021/12/30 08:40:02;;;;;;;31.83;10.85;;;10.40;99.90;;;;;;4942331;29;20126;-48
2021/12/30 08:42:28;;;;;;;38.33;9.75;;;10.50;99.90;;;;;;4941621;28;20118;-50
2021/12/30 08:44:56;;;;;;;25.60;9.18;;;10.50;99.90;;;;;;4941744;29;20051;-48
2021/12/30 08:47:23;;;;;;;36.33;9.13;;;10.40;99.90;;;;;;4943121;29;20071;-49
2021/12/30 08:49:49;;;;;;;31.38;8.30;;;10.40;99.90;;;;;;4943755;28;20076;-51
2021/12/30 08:52:19;;;;;;;28.05;8.73;;;10.60;99.90;;;;;;4927263;29;20051;-51
2021/12/30 08:54:47;;;;;;;33.65;8.68;;;10.40;99.90;;;;;;4925413;29;20099;-50
2021/12/30 08:57:13;;;;;;;33.03;9.02;;;10.50;99.90;;;;;;4940152;29;20581;-50
2021/12/30 08:59:39;;;;;;;34.33;9.48;;;10.50;99.90;;;;;;4941716;29;20174;-49
2021/12/30 09:02:06;;;;;;;27.40;8.00;;;10.60;99.90;;;;;;4942673;29;20062;-47
2021/12/30 09:04:32;;;;;;;29.10;8.20;;;10.70;99.90;;;;;;4940945;29;20459;-47
2021/12/30 09:06:59;;;;;;;40.38;9.82;;;10.50;99.90;;;;;;4942840;29;20047;-47
2021/12/30 09:09:26;;;;;;;26.40;8.25;;;10.60;99.90;;;;;;4942370;29;20049;-48
2021/12/30 09:11:52;;;;;;;28.08;8.30;;;10.60;99.90;;;;;;4943231;29;20047;-47
2021/12/30 09:14:18;;;;;;;26.67;8.23;;;10.70;99.90;;;;;;4924938;29;20058;-49
2021/12/30 09:16:44;;;;;;;25.25;7.70;;;10.60;99.90;;;;;;4940492;29;20051;-48
2021/12/30 09:19:10;;;;;;;24.27;8.73;;;10.60;99.90;;;;;;4941218;29;20501;-47
2021/12/30 09:21:38;;;;;;;26.58;8.85;;;10.60;99.90;;;;;;4948063;28;20065;-49
2021/12/30 09:24:05;;;;;;;29.17;9.73;;;10.60;99.90;;;;;;4948131;28;20420;-47
2021/12/30 09:26:31;;;;;;;35.15;10.85;;;10.70;99.90;;;;;;4946708;29;20466;-47
2021/12/30 09:28:56;;;;;;;28.20;10.20;;;10.60;99.90;;;;;;4944060;29;20055;-48
2021/12/30 09:31:22;;;;;;;37.95;11.10;;;10.60;99.90;;;;;;4946700;29;20043;-48
2021/12/30 09:33:48;;;;;;;27.30;10.00;;;10.70;99.90;;;;;;4947668;28;20047;-48
2021/12/30 09:39:48;;;;;;;27.75;9.65;;;10.60;99.90;;;;;;5304589;23;20058;-49
2021/12/30 09:42:15;;;;;;;28.30;9.88;;;10.70;99.90;;;;;;4945066;29;20055;-47
2021/12/30 09:44:41;;;;;;;36.17;9.25;;;10.70;99.90;;;;;;4927843;29;20163;-49
2021/12/30 09:47:07;;;;;;;27.75;8.98;;;10.60;99.90;;;;;;4935629;28;20043;-49
2021/12/30 09:49:33;;;;;;;35.90;9.35;;;10.70;99.90;;;;;;4927871;28;20728;-49
2021/12/30 09:51:59;;;;;;;33.08;8.05;;;10.70;99.90;;;;;;4942258;28;20047;-49
2021/12/30 09:54:25;;;;;;;33.45;9.43;;;10.60;99.90;;;;;;4939089;28;20097;-49
2021/12/30 09:56:54;;;;;;;31.63;9.57;;;10.70;99.90;;;;;;4940393;28;20155;-48
2021/12/30 09:59:23;;;;;;;32.50;8.90;;;10.60;99.90;;;;;;4926007;28;20117;-48
2021/12/30 10:01:49;;;;;;;27.23;8.00;;;10.60;99.90;;;;;;4907154;28;20412;-49
2021/12/30 10:04:15;;;;;;;36.58;7.97;;;10.70;99.90;;;;;;4920864;28;20058;-49
2021/12/30 10:06:44;;;;;;;37.58;8.43;;;10.60;99.90;;;;;;4944288;28;20046;-47
2021/12/30 10:09:12;;;;;;;35.15;8.10;;;10.60;99.90;;;;;;4943024;28;20404;-50
2021/12/30 10:11:56;;;;;;;36.75;8.70;;;10.70;99.90;;;;;;4927519;29;20059;-50
2021/12/30 10:14:34;;;;;;;29.48;8.18;;;10.80;99.90;;;;;;4944451;28;20062;-48
2021/12/30 10:17:18;;;;;;;30.13;8.40;;;10.70;99.90;;;;;;4940515;28;20070;-48
2021/12/30 10:19:44;;;;;;;39.80;8.85;;;10.70;99.90;;;;;;4910842;28;20051;-49
2021/12/30 10:22:15;;;;;;;35.47;8.20;;;10.80;99.90;;;;;;4927286;28;20117;-48
2021/12/30 10:24:42;;;;;;;33.83;9.20;;;10.60;99.90;;;;;;4918964;29;20759;-48
2021/12/30 10:27:08;;;;;;;34.60;8.68;;;10.80;99.90;;;;;;4937160;29;20051;-49
2021/12/30 10:29:44;;;;;;;34.50;8.98;;;10.80;99.90;;;;;;4925122;29;20078;-48
2021/12/30 10:32:23;;;;;;;41.15;10.02;;;10.80;99.90;;;;;;4945892;28;20043;-48
2021/12/30 10:35:24;;;;;;;47.65;10.55;;;10.70;99.90;;;;;;4944135;28;20692;-47
2021/12/30 10:38:03;;;;;;;46.53;9.35;;;10.70;99.90;;;;;;4882375;29;20128;-47
2021/12/30 10:40:31;;;;;;;44.97;9.90;;;10.80;99.90;;;;;;4880081;29;20040;-51
2021/12/30 10:43:27;;;;;;;41.17;10.27;;;10.70;99.90;;;;;;4878972;29;20057;-49
2021/12/30 10:46:13;;;;;;;54.28;9.70;;;10.80;99.90;;;;;;4875799;29;20521;-48
2021/12/30 10:49:09;;;;;;;34.00;10.07;;;10.70;99.90;;;;;;4882592;29;20454;-48
2021/12/30 10:51:38;;;;;;;48.55;10.95;;;10.70;99.90;;;;;;4865381;29;20061;-48
2021/12/30 10:54:20;;;;;;;44.58;11.07;;;10.80;99.90;;;;;;4881795;29;20056;-49
2021/12/30 10:56:58;;;;;;;49.88;10.60;;;10.70;99.90;;;;;;4883822;29;20138;-48
2021/12/30 10:59:34;;;;;;;44.88;10.70;;;10.80;99.90;;;;;;4870235;29;20075;-50
2021/12/30 11:02:02;;;;;;;60.15;12.90;;;10.90;99.90;;;;;;4872209;29;20056;-48
2021/12/30 11:05:11;;;;;;;55.03;10.80;;;10.80;99.90;;;;;;4886600;29;20403;-48
2021/12/30 11:07:42;;;;;;;53.30;11.35;;;10.90;99.90;;;;;;4805738;29;20069;-47
2021/12/30 11:10:10;;;;;;;59.00;11.00;;;10.80;99.90;;;;;;4802429;29;20134;-48
2021/12/30 11:12:44;;;;;;;51.47;9.40;;;10.80;99.90;;;;;;4838850;29;20179;-50
2021/12/30 11:15:32;;;;;;;47.47;10.77;;;10.80;99.90;;;;;;4828290;29;20160;-48
2021/12/30 11:18:18;;;;;;;50.97;10.38;;;10.90;99.90;;;;;;4830395;29;20622;-51
2021/12/30 11:20:48;;;;;;;49.22;8.93;;;10.80;99.90;;;;;;4831706;29;20610;-48
2021/12/30 11:23:17;;;;;;;45.83;10.65;;;10.90;99.90;;;;;;4806444;29;20494;-48
2021/12/30 11:25:43;;;;;;;51.97;9.77;;;10.90;99.90;;;;;;4842202;29;20050;-48
2021/12/30 11:28:11;;;;;;;50.50;9.98;;;10.80;99.90;;;;;;4831473;29;20594;-49
2021/12/30 11:30:37;;;;;;;43.00;11.48;;;10.90;99.90;;;;;;4821215;29;20428;-48
2021/12/30 11:33:03;;;;;;;47.00;9.25;;;10.90;99.90;;;;;;4846641;29;20456;-47
2021/12/30 11:35:29;;;;;;;44.92;10.55;;;10.80;99.90;;;;;;4848269;29;20132;-48
2021/12/30 11:37:56;;;;;;;49.20;9.60;;;10.80;99.90;;;;;;4828099;29;20072;-49
2021/12/30 11:40:25;;;;;;;46.15;9.77;;;10.90;99.90;;;;;;4847481;29;20072;-47
2021/12/30 11:42:56;;;;;;;38.28;9.10;;;10.80;99.90;;;;;;4851474;29;20063;-50
2021/12/30 11:45:39;;;;;;;50.30;9.80;;;10.80;99.90;;;;;;4924137;29;20051;-49
2021/12/30 11:48:22;;;;;;;49.83;10.40;;;10.90;99.90;;;;;;4941710;28;20536;-48
2021/12/30 11:50:48;;;;;;;44.88;8.70;;;10.80;99.90;;;;;;4933694;29;20407;-50
2021/12/30 11:53:25;;;;;;;37.70;9.27;;;10.90;99.90;;;;;;4943716;29;20414;-48
2021/12/30 11:56:02;;;;;;;41.75;9.60;;;10.90;99.90;;;;;;4943309;28;20078;-49
2021/12/30 11:58:28;;;;;;;45.38;8.80;;;10.80;99.90;;;;;;4925829;29;20101;-48
2021/12/30 12:00:55;;;;;;;44.90;8.88;;;10.90;99.90;;;;;;4924854;29;20135;-47
2021/12/30 12:03:38;;;;;;;44.85;9.75;;;10.90;99.90;;;;;;4923745;29;20060;-49
2021/12/30 12:06:28;;;;;;;41.47;8.70;;;10.90;99.90;;;;;;4926793;29;20058;-50
2021/12/30 12:08:59;;;;;;;37.65;8.80;;;10.80;99.90;;;;;;4944488;29;20505;-50
2021/12/30 12:11:26;;;;;;;53.38;10.68;;;10.90;99.90;;;;;;4927321;29;20071;-50
2021/12/30 12:13:54;;;;;;;46.30;8.50;;;10.90;99.90;;;;;;4944392;29;20505;-51
2021/12/30 12:16:46;;;;;;;38.13;8.25;;;10.90;99.90;;;;;;4940752;28;20067;-49
2021/12/30 12:19:12;;;;;;;37.83;8.30;;;10.90;99.90;;;;;;4919939;28;20168;-52
2021/12/30 12:21:44;;;;;;;49.28;9.88;;;10.80;99.90;;;;;;4926294;29;20062;-49
2021/12/30 12:24:32;;;;;;;40.28;8.70;;;10.80;99.90;;;;;;4943691;29;20612;-50
2021/12/30 12:27:05;;;;;;;36.17;8.27;;;10.70;99.90;;;;;;4940829;28;20224;-50
2021/12/30 12:29:49;;;;;;;40.25;9.48;;;10.80;99.90;;;;;;4938038;28;20057;-49
2021/12/30 12:32:16;;;;;;;42.30;10.18;;;10.70;99.90;;;;;;4941222;28;20457;-49
2021/12/30 12:34:46;;;;;;;40.80;8.85;;;10.90;99.90;;;;;;4935660;28;20527;-50
2021/12/30 12:37:32;;;;;;;41.70;8.88;;;10.80;99.90;;;;;;4918944;29;20047;-51
2021/12/30 12:40:10;;;;;;;45.65;8.73;;;10.80;99.90;;;;;;4942954;29;20126;-49
2021/12/30 12:42:53;;;;;;;42.75;8.77;;;10.80;99.90;;;;;;4943509;29;20513;-49